createdAt,value
2022-11-10T00:01:06.707Z,2.47
2022-11-10T00:03:34.640Z,2.33
2022-11-10T00:06:08.556Z,2.83
2022-11-10T00:08:35.104Z,2.28
2022-11-10T00:11:07.907Z,2.03
2022-11-10T00:13:56.339Z,2.45
2022-11-10T00:16:41.182Z,2.78
2022-11-10T00:19:07.981Z,2.33
2022-11-10T00:21:34.277Z,2.20
2022-11-10T00:24:00.559Z,2.20
2022-11-10T00:26:26.934Z,2.40
2022-11-10T00:28:54.992Z,2.78
2022-11-10T00:31:21.263Z,2.03
2022-11-10T00:33:47.547Z,2.40
2022-11-10T00:36:13.914Z,2.40
2022-11-10T00:38:40.223Z,3.38
2022-11-10T00:41:06.644Z,3.80
2022-11-10T00:43:33.663Z,2.25
2022-11-10T00:46:00.443Z,2.33
2022-11-10T00:48:26.748Z,2.00
2022-11-10T00:50:53.074Z,2.50
2022-11-10T00:53:19.750Z,2.00
2022-11-10T00:55:46.320Z,2.30
2022-11-10T00:58:12.840Z,2.13
2022-11-10T01:00:39.158Z,2.10
2022-11-10T01:06:52.774Z,2.10
2022-11-10T01:09:19.229Z,3.53
2022-11-10T01:11:45.550Z,4.28
2022-11-10T01:14:11.831Z,3.58
2022-11-10T01:16:38.160Z,3.78
2022-11-10T01:19:04.530Z,3.42
2022-11-10T01:21:30.898Z,3.50
2022-11-10T01:23:57.769Z,3.50
2022-11-10T01:26:24.558Z,3.55
2022-11-10T01:28:50.966Z,3.28
2022-11-10T01:31:20.474Z,3.33
2022-11-10T01:33:47.195Z,2.95
2022-11-10T01:36:14.217Z,2.92
2022-11-10T01:38:42.557Z,2.33
2022-11-10T01:41:12.142Z,2.05
2022-11-10T01:43:38.725Z,2.38
2022-11-10T01:46:07.570Z,2.08
2022-11-10T01:48:49.696Z,2.60
2022-11-10T01:51:28.343Z,2.05
2022-11-10T01:54:00.948Z,2.30
2022-11-10T01:56:31.978Z,2.50
2022-11-10T01:59:02.963Z,2.53
2022-11-10T02:01:30.565Z,2.13
2022-11-10T02:04:04.683Z,3.50
2022-11-10T02:06:34.890Z,1.90
2022-11-10T02:09:01.379Z,2.40
2022-11-10T02:11:28.891Z,2.60
2022-11-10T02:13:55.459Z,2.65
2022-11-10T02:16:22.433Z,2.17
2022-11-10T02:18:49.394Z,2.53
2022-11-10T02:21:20.076Z,2.50
2022-11-10T02:23:49.375Z,2.38
2022-11-10T02:26:34.848Z,2.45
2022-11-10T02:29:01.151Z,2.00
2022-11-10T02:31:27.537Z,2.10
2022-11-10T02:33:53.863Z,2.20
2022-11-10T02:36:20.261Z,2.40
2022-11-10T02:38:46.535Z,2.35
2022-11-10T02:41:12.879Z,2.40
2022-11-10T02:43:39.418Z,2.50
2022-11-10T02:46:05.966Z,2.13
2022-11-10T02:48:32.381Z,2.13
2022-11-10T02:50:58.690Z,2.00
2022-11-10T02:53:25.174Z,2.55
2022-11-10T02:55:51.614Z,2.40
2022-11-10T02:58:17.948Z,2.60
2022-11-10T03:00:44.390Z,2.10
2022-11-10T03:03:10.717Z,3.00
2022-11-10T03:05:37.013Z,2.35
2022-11-10T03:08:04.351Z,2.13
2022-11-10T03:10:31.443Z,2.50
2022-11-10T03:12:59.711Z,2.70
2022-11-10T03:15:26.535Z,2.60
2022-11-10T03:17:53.185Z,3.10
2022-11-10T03:20:20.262Z,2.08
2022-11-10T03:22:47.271Z,2.50
2022-11-10T03:25:13.752Z,2.42
2022-11-10T03:27:40.075Z,2.63
2022-11-10T03:30:07.435Z,2.38
2022-11-10T03:32:33.774Z,2.85
2022-11-10T03:35:00.090Z,2.88
2022-11-10T03:37:26.410Z,2.55
2022-11-10T03:39:52.722Z,2.67
2022-11-10T03:42:19.047Z,2.40
2022-11-10T03:44:45.349Z,2.72
2022-11-10T03:47:11.642Z,2.42
2022-11-10T03:49:37.990Z,2.92
2022-11-10T03:52:04.446Z,2.22
2022-11-10T03:54:30.726Z,2.40
2022-11-10T03:56:57.069Z,2.42
2022-11-10T03:59:23.362Z,2.90
2022-11-10T04:01:50.073Z,2.47
2022-11-10T04:04:34.799Z,3.17
2022-11-10T04:07:19.523Z,2.63
2022-11-10T04:09:45.830Z,2.53
2022-11-10T04:12:30.451Z,2.60
2022-11-10T04:15:15.412Z,2.78
2022-11-10T04:17:41.703Z,2.95
2022-11-10T04:20:08.458Z,3.00
2022-11-10T04:22:53.411Z,2.92
2022-11-10T04:25:19.817Z,3.15
2022-11-10T04:27:46.112Z,3.15
2022-11-10T04:30:12.585Z,4.05
2022-11-10T04:32:38.918Z,5.03
2022-11-10T04:35:05.322Z,4.25
2022-11-10T04:37:31.649Z,4.10
2022-11-10T04:39:57.927Z,3.55
2022-11-10T04:42:24.197Z,3.90
2022-11-10T04:44:50.517Z,3.45
2022-11-10T04:47:16.805Z,3.50
2022-11-10T04:49:43.207Z,4.05
2022-11-10T04:52:09.573Z,3.92
2022-11-10T04:54:35.850Z,3.58
2022-11-10T04:57:02.204Z,4.43
2022-11-10T04:59:28.534Z,4.18
2022-11-10T05:01:55.565Z,3.75
2022-11-10T05:04:22.159Z,4.03
2022-11-10T05:06:48.569Z,3.95
2022-11-10T05:09:14.967Z,3.60
2022-11-10T05:11:41.261Z,4.88
2022-11-10T05:14:07.542Z,4.60
2022-11-10T05:16:33.839Z,4.15
2022-11-10T05:19:00.220Z,3.88
2022-11-10T05:21:26.569Z,4.53
2022-11-10T05:23:52.909Z,4.72
2022-11-10T05:26:19.648Z,4.30
2022-11-10T05:28:46.188Z,4.82
2022-11-10T05:31:12.824Z,4.50
2022-11-10T05:33:39.391Z,4.97
2022-11-10T05:36:07.069Z,4.32
2022-11-10T05:38:35.651Z,3.88
2022-11-10T05:41:05.417Z,4.60
2022-11-10T05:43:31.762Z,3.90
2022-11-10T05:45:58.044Z,3.50
2022-11-10T05:48:24.344Z,4.28
2022-11-10T05:50:50.679Z,3.85
2022-11-10T05:53:17.017Z,3.97
2022-11-10T05:55:43.371Z,3.67
2022-11-10T05:58:09.746Z,3.92
2022-11-10T06:00:36.476Z,4.45
2022-11-10T06:03:04.400Z,3.50
2022-11-10T06:05:33.113Z,3.30
2022-11-10T06:08:00.156Z,4.18
2022-11-10T06:10:27.144Z,3.50
2022-11-10T06:12:53.717Z,3.38
2022-11-10T06:15:20.956Z,3.28
2022-11-10T06:17:47.361Z,3.90
2022-11-10T06:20:14.450Z,3.47
2022-11-10T06:22:41.336Z,3.45
2022-11-10T06:25:08.799Z,3.75
2022-11-10T06:27:35.187Z,3.38
2022-11-10T06:30:01.764Z,3.97
2022-11-10T06:32:28.090Z,4.15
2022-11-10T06:34:59.303Z,3.47
2022-11-10T06:37:26.875Z,4.43
2022-11-10T06:39:53.246Z,3.92
2022-11-10T06:42:19.613Z,3.72
2022-11-10T06:44:45.949Z,4.05
2022-11-10T06:47:12.320Z,4.47
2022-11-10T06:49:38.797Z,4.63
2022-11-10T06:52:05.191Z,4.05
2022-11-10T06:54:31.464Z,4.57
2022-11-10T06:56:57.843Z,5.03
2022-11-10T06:59:24.143Z,4.50
2022-11-10T07:01:50.517Z,4.10
2022-11-10T07:04:20.994Z,4.50
2022-11-10T07:06:47.783Z,5.22
2022-11-10T07:09:14.642Z,5.50
2022-11-10T07:11:41.044Z,5.97
2022-11-10T07:14:07.387Z,6.30
2022-11-10T07:16:33.673Z,6.85
2022-11-10T07:18:59.971Z,7.30
2022-11-10T07:21:26.278Z,6.65
2022-11-10T07:23:52.548Z,6.88
2022-11-10T07:26:19.107Z,7.35
2022-11-10T07:28:45.415Z,6.40
2022-11-10T07:31:11.838Z,6.97
2022-11-10T07:33:38.139Z,6.82
2022-11-10T07:36:04.987Z,6.38
2022-11-10T07:38:31.280Z,6.45
2022-11-10T07:40:57.658Z,7.30
2022-11-10T07:43:25.765Z,7.78
2022-11-10T07:45:53.076Z,7.05
2022-11-10T07:48:19.780Z,7.47
2022-11-10T07:50:46.544Z,6.53
2022-11-10T07:53:14.757Z,6.93
2022-11-10T07:55:44.818Z,6.45
2022-11-10T07:58:13.747Z,7.60
2022-11-10T08:00:41.489Z,7.60
2022-11-10T08:03:13.578Z,7.85
2022-11-10T08:05:40.142Z,7.90
2022-11-10T08:08:08.953Z,7.60
2022-11-10T08:10:35.924Z,8.35
2022-11-10T08:13:05.015Z,7.63
2022-11-10T08:15:32.591Z,7.18
2022-11-10T08:18:01.028Z,6.80
2022-11-10T08:20:27.980Z,6.80
2022-11-10T08:22:59.430Z,8.05
2022-11-10T08:25:33.195Z,7.32
2022-11-10T08:28:03.279Z,7.80
2022-11-10T08:30:30.343Z,7.60
2022-11-10T08:32:58.583Z,7.35
2022-11-10T08:35:26.138Z,7.47
2022-11-10T08:37:52.909Z,6.60
2022-11-10T08:40:20.550Z,6.75
2022-11-10T08:42:47.506Z,5.75
2022-11-10T08:45:14.537Z,6.72
2022-11-10T08:47:40.979Z,5.93
2022-11-10T08:50:08.155Z,6.55
2022-11-10T08:52:34.574Z,6.20
2022-11-10T08:55:00.965Z,5.63
2022-11-10T08:57:27.327Z,5.80
2022-11-10T08:59:53.593Z,5.65
2022-11-10T09:02:20.121Z,5.18
2022-11-10T09:04:46.487Z,5.45
2022-11-10T09:07:12.907Z,5.53
2022-11-10T09:09:39.289Z,5.53
2022-11-10T09:12:05.756Z,4.95
2022-11-10T09:14:33.248Z,5.13
2022-11-10T09:16:59.656Z,4.88
2022-11-10T09:19:25.968Z,5.40
2022-11-10T09:21:52.287Z,5.68
2022-11-10T09:24:18.566Z,6.70
2022-11-10T09:26:47.472Z,5.88
2022-11-10T09:29:13.825Z,6.00
2022-11-10T09:31:40.125Z,6.22
2022-11-10T09:34:06.523Z,6.00
2022-11-10T09:36:32.812Z,5.43
2022-11-10T09:38:59.095Z,4.47
2022-11-10T09:41:26.570Z,4.50
2022-11-10T09:44:05.714Z,4.22
2022-11-10T09:46:41.832Z,4.10
2022-11-10T09:50:06.667Z,4.65
2022-11-10T09:52:36.987Z,4.40
2022-11-10T09:55:18.742Z,4.18
2022-11-10T09:57:49.082Z,4.53
2022-11-10T10:00:17.318Z,3.40
2022-11-10T10:02:59.289Z,3.33
2022-11-10T10:05:51.576Z,3.13
2022-11-10T10:08:32.842Z,2.85
2022-11-10T10:11:36.321Z,3.35
2022-11-10T10:14:36.278Z,2.75
2022-11-10T10:17:11.410Z,3.20
2022-11-10T10:19:45.399Z,2.63
2022-11-10T10:22:17.413Z,2.95
2022-11-10T10:24:43.799Z,3.20
2022-11-10T10:27:18.665Z,2.55
2022-11-10T10:29:51.319Z,2.47
2022-11-10T10:32:19.467Z,3.03
2022-11-10T10:34:46.595Z,2.60
2022-11-10T10:37:23.054Z,2.30
2022-11-10T10:39:51.803Z,1.95
2022-11-10T10:42:36.281Z,2.30
2022-11-10T10:45:15.572Z,2.33
2022-11-10T10:47:43.016Z,2.78
2022-11-10T10:50:27.867Z,2.58
2022-11-10T10:53:12.498Z,3.65
2022-11-10T10:55:44.390Z,2.08
2022-11-10T10:58:30.791Z,2.28
2022-11-10T11:01:25.223Z,2.47
2022-11-10T11:03:53.203Z,2.85
2022-11-10T11:06:26.969Z,2.33
2022-11-10T11:09:15.330Z,2.05
2022-11-10T11:11:58.498Z,2.53
2022-11-10T11:14:27.969Z,2.30
2022-11-10T11:17:22.450Z,2.30
2022-11-10T11:19:59.612Z,2.15
2022-11-10T11:23:05.084Z,2.13
2022-11-10T11:25:31.327Z,2.45
2022-11-10T11:28:29.685Z,2.03
2022-11-10T11:31:21.359Z,2.90
2022-11-10T11:34:02.852Z,2.40
2022-11-10T11:36:52.756Z,2.35
2022-11-10T11:39:49.906Z,2.33
2022-11-10T11:42:57.446Z,3.42
2022-11-10T11:45:49.992Z,2.90
2022-11-10T11:48:33.094Z,2.70
2022-11-10T11:51:12.688Z,2.72
2022-11-10T11:54:05.212Z,2.65
2022-11-10T11:56:37.812Z,2.70
2022-11-10T11:59:18.693Z,2.30
2022-11-10T12:02:26.332Z,3.25
2022-11-10T12:05:38.122Z,2.63
2022-11-10T12:08:22.415Z,2.97
2022-11-10T12:10:54.905Z,2.13
2022-11-10T12:13:36.961Z,2.83
2022-11-10T12:16:30.781Z,2.08
2022-11-10T12:19:40.199Z,2.20
2022-11-10T12:22:30.351Z,1.90
2022-11-10T12:25:14.024Z,2.17
2022-11-10T12:27:50.431Z,2.17
2022-11-10T12:30:18.182Z,2.20
2022-11-10T12:32:52.422Z,2.33
2022-11-10T12:35:28.289Z,2.40
2022-11-10T12:38:21.667Z,2.10
2022-11-10T12:40:57.406Z,2.50
2022-11-10T12:43:39.587Z,2.28
2022-11-10T12:46:11.897Z,2.20
2022-11-10T12:49:05.907Z,2.08
2022-11-10T12:52:03.827Z,1.95
2022-11-10T12:54:30.364Z,2.25
2022-11-10T12:57:01.520Z,2.00
2022-11-10T12:59:39.987Z,2.75
2022-11-10T13:02:24.453Z,2.42
2022-11-10T13:05:12.061Z,2.42
2022-11-10T13:07:38.423Z,2.38
2022-11-10T13:10:24.269Z,2.35
2022-11-10T13:15:35.587Z,2.30
2022-11-10T13:18:02.211Z,2.50
2022-11-10T13:20:51.462Z,2.42
2022-11-10T13:23:21.997Z,2.50
2022-11-10T13:25:55.432Z,2.95
2022-11-10T13:28:46.717Z,2.80
2022-11-10T13:31:28.071Z,2.30
2022-11-10T13:34:11.476Z,2.25
2022-11-10T13:36:46.576Z,2.67
2022-11-10T13:39:18.927Z,2.03
2022-11-10T13:41:51.120Z,2.22
2022-11-10T13:44:23.847Z,2.67
2022-11-10T13:47:08.810Z,2.50
2022-11-10T13:49:54.982Z,2.97
2022-11-10T13:52:51.781Z,2.45
2022-11-10T13:55:50.486Z,2.50
2022-11-10T13:58:27.214Z,2.10
2022-11-10T14:01:15.261Z,2.80
2022-11-10T14:03:53.195Z,2.10
2022-11-10T14:06:28.032Z,2.63
2022-11-10T14:09:20.095Z,2.63
2022-11-10T14:11:52.636Z,2.47
2022-11-10T14:14:27.051Z,2.20
2022-11-10T14:16:54.555Z,2.40
2022-11-10T14:19:37.602Z,2.42
2022-11-10T14:22:16.315Z,2.25
2022-11-10T14:24:54.062Z,2.67
2022-11-10T14:27:24.420Z,3.15
2022-11-10T14:30:03.652Z,2.50
2022-11-10T14:32:30.066Z,2.47
2022-11-10T14:34:57.593Z,2.65
2022-11-10T14:37:26.634Z,2.90
2022-11-10T14:39:56.204Z,2.58
2022-11-10T14:42:25.814Z,2.53
2022-11-10T14:45:16.723Z,2.50
2022-11-10T14:47:43.289Z,2.38
2022-11-10T14:50:22.856Z,2.28
2022-11-10T14:52:54.998Z,2.63
2022-11-10T14:55:29.625Z,2.63
2022-11-10T14:58:22.806Z,2.47
2022-11-10T15:00:49.625Z,2.42
2022-11-10T15:03:23.083Z,2.53
2022-11-10T15:05:49.557Z,2.70
2022-11-10T15:08:16.873Z,2.58
2022-11-10T15:10:48.550Z,2.20
2022-11-10T15:13:27.385Z,2.58
2022-11-10T15:16:20.871Z,2.60
2022-11-10T15:18:49.037Z,2.45
2022-11-10T15:21:16.935Z,2.30
2022-11-10T15:23:52.291Z,2.35
2022-11-10T15:28:52.972Z,2.90
2022-11-10T15:31:28.442Z,2.75
2022-11-10T15:36:22.161Z,2.80
2022-11-10T15:39:23.541Z,2.75
2022-11-10T15:41:56.706Z,2.63
2022-11-10T15:44:25.732Z,2.50
2022-11-10T15:49:38.220Z,2.63
2022-11-10T15:52:22.108Z,2.83
2022-11-10T15:54:50.346Z,3.22
2022-11-10T15:57:18.522Z,6.40
2022-11-10T15:59:45.487Z,10.20
2022-11-10T16:02:24.019Z,10.52
2022-11-10T16:04:59.533Z,9.90
2022-11-10T16:07:26.485Z,5.28
2022-11-10T16:09:52.785Z,4.55
2022-11-10T16:12:21.827Z,3.88
2022-11-10T16:14:51.310Z,3.58
2022-11-10T16:17:18.092Z,4.05
2022-11-10T16:19:46.057Z,3.88
2022-11-10T16:22:13.243Z,3.55
2022-11-10T16:24:40.300Z,3.72
2022-11-10T16:27:10.804Z,3.92
2022-11-10T16:29:37.165Z,3.42
2022-11-10T16:32:04.729Z,3.47
2022-11-10T16:34:31.380Z,3.75
2022-11-10T16:36:57.746Z,3.47
2022-11-10T16:39:25.196Z,3.83
2022-11-10T16:41:51.472Z,3.60
2022-11-10T16:44:25.059Z,3.63
2022-11-10T16:46:55.818Z,4.18
2022-11-10T16:49:34.033Z,3.67
2022-11-10T16:52:10.916Z,4.32
2022-11-10T16:54:37.245Z,3.55
2022-11-10T16:57:11.982Z,4.15
2022-11-10T16:59:38.383Z,3.05
2022-11-10T17:02:11.172Z,3.13
2022-11-10T17:04:37.452Z,3.63
2022-11-10T17:07:08.195Z,3.13
2022-11-10T17:09:34.948Z,2.58
2022-11-10T17:12:01.283Z,2.83
2022-11-10T17:14:27.581Z,3.65
2022-11-10T17:16:55.551Z,2.97
2022-11-10T17:19:25.838Z,3.22
2022-11-10T17:21:53.787Z,3.30
2022-11-10T17:24:20.937Z,3.58
2022-11-10T17:26:47.512Z,3.80
2022-11-10T17:29:17.320Z,3.70
2022-11-10T17:31:44.527Z,4.10
2022-11-10T17:34:10.871Z,3.90
2022-11-10T17:36:37.393Z,5.40
2022-11-10T17:39:04.060Z,4.35
2022-11-10T17:41:30.617Z,4.25
2022-11-10T17:43:56.919Z,3.83
2022-11-10T17:46:23.202Z,4.30
2022-11-10T17:48:49.718Z,6.18
2022-11-10T17:51:20.806Z,3.85
2022-11-10T17:53:47.246Z,4.47
2022-11-10T17:56:13.937Z,4.63
2022-11-10T17:58:40.339Z,4.82
2022-11-10T18:01:18.080Z,4.10
2022-11-10T18:03:45.745Z,4.40
2022-11-10T18:06:20.062Z,3.83
2022-11-10T18:08:47.352Z,4.05
2022-11-10T18:11:16.833Z,4.30
2022-11-10T18:13:43.624Z,4.50
2022-11-10T18:16:11.783Z,4.68
2022-11-10T18:18:38.517Z,4.82
2022-11-10T18:21:06.082Z,5.57
2022-11-10T18:23:32.715Z,5.05
2022-11-10T18:26:08.608Z,4.90
2022-11-10T18:28:35.556Z,4.82
2022-11-10T18:31:08.334Z,4.45
2022-11-10T18:33:34.989Z,4.63
2022-11-10T18:36:01.861Z,5.03
2022-11-10T18:38:28.753Z,5.18
2022-11-10T18:40:55.092Z,3.95
2022-11-10T18:43:21.760Z,4.55
2022-11-10T18:45:52.839Z,4.18
2022-11-10T18:48:19.153Z,4.53
2022-11-10T18:50:45.531Z,3.90
2022-11-10T18:53:11.802Z,3.70
2022-11-10T18:55:42.921Z,4.18
2022-11-10T18:58:11.612Z,3.95
2022-11-10T19:00:38.277Z,3.63
2022-11-10T19:03:04.648Z,4.57
2022-11-10T19:05:30.947Z,4.00
2022-11-10T19:07:57.291Z,5.07
2022-11-10T19:10:23.553Z,4.45
2022-11-10T19:12:49.859Z,4.63
2022-11-10T19:15:16.250Z,5.13
2022-11-10T19:17:42.570Z,5.65
2022-11-10T19:20:10.125Z,5.68
2022-11-10T19:22:36.595Z,6.20
2022-11-10T19:25:10.034Z,6.45
2022-11-10T19:27:36.391Z,6.00
2022-11-10T19:30:03.647Z,6.80
2022-11-10T19:32:29.964Z,5.95
2022-11-10T19:34:56.389Z,8.20
2022-11-10T19:37:22.846Z,6.80
2022-11-10T19:39:49.183Z,7.38
2022-11-10T19:42:15.487Z,7.72
2022-11-10T19:44:41.775Z,6.80
2022-11-10T19:47:08.144Z,5.80
2022-11-10T19:49:38.149Z,5.63
2022-11-10T19:52:04.471Z,5.70
2022-11-10T19:54:30.747Z,5.68
2022-11-10T19:56:57.048Z,5.90
2022-11-10T19:59:23.349Z,6.20
2022-11-10T20:01:49.749Z,6.93
2022-11-10T20:04:16.062Z,6.30
2022-11-10T20:06:42.405Z,6.18
2022-11-10T20:09:08.797Z,5.70
2022-11-10T20:11:35.111Z,5.85
2022-11-10T20:14:01.700Z,5.65
2022-11-10T20:16:28.066Z,5.50
2022-11-10T20:18:54.429Z,6.00
2022-11-10T20:21:23.388Z,6.78
2022-11-10T20:23:54.929Z,7.53
2022-11-10T20:26:22.346Z,6.72
2022-11-10T20:28:49.049Z,6.28
2022-11-10T20:31:21.366Z,6.90
2022-11-10T20:33:48.570Z,6.75
2022-11-10T20:36:21.326Z,7.40
2022-11-10T20:38:49.638Z,7.22
2022-11-10T20:41:18.677Z,9.60
2022-11-10T20:43:45.483Z,9.73
2022-11-10T20:46:33.405Z,8.75
2022-11-10T20:49:01.364Z,7.78
2022-11-10T20:51:27.691Z,6.88
2022-11-10T20:53:54.780Z,7.15
2022-11-10T20:56:25.339Z,6.78
2022-11-10T20:58:54.633Z,6.70
2022-11-10T21:01:20.973Z,6.43
2022-11-10T21:03:47.352Z,7.60
2022-11-10T21:06:13.691Z,8.00
2022-11-10T21:08:40.137Z,8.43
2022-11-10T21:11:06.986Z,8.48
2022-11-10T21:13:34.318Z,8.32
2022-11-10T21:16:03.486Z,7.63
2022-11-10T21:18:35.737Z,7.20
2022-11-10T21:21:02.973Z,8.40
2022-11-10T21:23:29.371Z,8.05
2022-11-10T21:25:57.674Z,7.93
2022-11-10T21:28:24.439Z,7.28
2022-11-10T21:30:51.314Z,8.75
2022-11-10T21:33:18.119Z,7.15
2022-11-10T21:35:44.905Z,8.57
2022-11-10T21:38:12.251Z,8.80
2022-11-10T21:40:38.918Z,10.23
2022-11-10T21:43:05.252Z,9.45
2022-11-10T21:45:31.561Z,9.18
2022-11-10T21:48:01.687Z,8.95
2022-11-10T21:50:28.774Z,9.40
2022-11-10T21:52:55.086Z,8.60
2022-11-10T21:55:21.433Z,8.77
2022-11-10T21:57:47.762Z,9.07
2022-11-10T22:00:14.604Z,9.23
2022-11-10T22:02:40.898Z,8.18
2022-11-10T22:05:07.579Z,8.52
2022-11-10T22:07:33.900Z,8.90
2022-11-10T22:10:18.665Z,8.77
2022-11-10T22:13:03.540Z,8.02
2022-11-10T22:15:48.216Z,7.60
2022-11-10T22:18:37.223Z,8.20
2022-11-10T22:21:05.203Z,7.68
2022-11-10T22:23:50.795Z,9.90
2022-11-10T22:26:17.774Z,9.15
2022-11-10T22:28:44.425Z,8.65
2022-11-10T22:31:11.769Z,8.23
2022-11-10T22:33:41.286Z,8.77
2022-11-10T22:36:11.716Z,9.52
2022-11-10T22:38:40.454Z,8.82
2022-11-10T22:41:30.977Z,9.00
2022-11-10T22:44:03.689Z,9.75
2022-11-10T22:46:37.848Z,8.93
2022-11-10T22:49:09.567Z,8.90
2022-11-10T22:51:37.658Z,8.90
2022-11-10T22:54:05.819Z,9.05
2022-11-10T22:56:33.399Z,8.88
2022-11-10T22:59:00.482Z,9.05
2022-11-10T23:01:27.375Z,8.70
2022-11-10T23:03:53.731Z,8.43
2022-11-10T23:06:20.549Z,8.13
2022-11-10T23:08:46.890Z,7.57
2022-11-10T23:11:16.154Z,8.30
2022-11-10T23:13:42.828Z,7.95
2022-11-10T23:16:16.905Z,6.53
2022-11-10T23:18:45.635Z,5.80
2022-11-10T23:21:14.456Z,6.03
2022-11-10T23:23:41.840Z,5.85
2022-11-10T23:26:19.972Z,5.30
2022-11-10T23:28:46.335Z,6.03
2022-11-10T23:31:21.150Z,5.63
2022-11-10T23:33:49.749Z,6.20
2022-11-10T23:36:18.359Z,6.38
2022-11-10T23:38:45.493Z,6.20
2022-11-10T23:41:26.051Z,6.93
2022-11-10T23:43:52.898Z,7.70
2022-11-10T23:46:19.190Z,7.13
2022-11-10T23:48:45.518Z,7.95
2022-11-10T23:51:13.656Z,6.50
2022-11-10T23:53:40.870Z,6.82
2022-11-10T23:56:10.937Z,6.35
2022-11-10T23:58:37.571Z,6.97
